sensor_id;sensor_type;location;lat;lon;timestamp;temperature;humidity
13336;DHT22;6737;51.480;11.962;2023-07-16T00:01:31;20.70;99.90
13336;DHT22;6737;51.480;11.962;2023-07-16T00:03:57;20.70;99.90
13336;DHT22;6737;51.480;11.962;2023-07-16T00:06:23;20.60;99.90
13336;DHT22;6737;51.480;11.962;2023-07-16T00:08:49;20.60;99.90
13336;DHT22;6737;51.480;11.962;2023-07-16T00:11:14;20.50;99.90
13336;DHT22;6737;51.480;11.962;2023-07-16T00:13:40;20.40;99.90
13336;DHT22;6737;51.480;11.962;2023-07-16T00:16:12;20.40;99.90
13336;DHT22;6737;51.480;11.962;2023-07-16T00:18:38;20.40;99.90
13336;DHT22;6737;51.480;11.962;2023-07-16T00:21:04;20.40;99.90
13336;DHT22;6737;51.480;11.962;2023-07-16T00:23:30;20.40;99.90
13336;DHT22;6737;51.480;11.962;2023-07-16T00:25:55;20.30;99.90
13336;DHT22;6737;51.480;11.962;2023-07-16T00:28:21;20.20;99.90
13336;DHT22;6737;51.480;11.962;2023-07-16T00:30:47;20.20;99.90
13336;DHT22;6737;51.480;11.962;2023-07-16T00:33:13;20.20;99.90
13336;DHT22;6737;51.480;11.962;2023-07-16T00:35:38;20.20;99.90
13336;DHT22;6737;51.480;11.962;2023-07-16T00:38:04;20.10;99.90
13336;DHT22;6737;51.480;11.962;2023-07-16T00:40:30;20.10;99.90
13336;DHT22;6737;51.480;11.962;2023-07-16T00:42:55;20.00;99.90
13336;DHT22;6737;51.480;11.962;2023-07-16T00:45:21;19.90;99.90
13336;DHT22;6737;51.480;11.962;2023-07-16T00:47:47;19.90;99.90
13336;DHT22;6737;51.480;11.962;2023-07-16T00:50:13;19.90;99.90
13336;DHT22;6737;51.480;11.962;2023-07-16T00:52:40;19.90;99.90
13336;DHT22;6737;51.480;11.962;2023-07-16T00:55:06;20.00;99.90
13336;DHT22;6737;51.480;11.962;2023-07-16T00:57:33;20.00;99.90
13336;DHT22;6737;51.480;11.962;2023-07-16T00:59:59;20.00;99.90
13336;DHT22;6737;51.480;11.962;2023-07-16T01:02:25;20.00;99.90
13336;DHT22;6737;51.480;11.962;2023-07-16T01:04:51;20.00;99.90
13336;DHT22;6737;51.480;11.962;2023-07-16T01:07:18;20.10;99.90
13336;DHT22;6737;51.480;11.962;2023-07-16T01:09:45;20.10;99.90
13336;DHT22;6737;51.480;11.962;2023-07-16T01:12:12;20.10;99.90
13336;DHT22;6737;51.480;11.962;2023-07-16T01:14:40;20.00;99.90
13336;DHT22;6737;51.480;11.962;2023-07-16T01:17:07;20.00;99.90
13336;DHT22;6737;51.480;11.962;2023-07-16T01:19:34;20.00;99.90
13336;DHT22;6737;51.480;11.962;2023-07-16T01:22:32;20.00;99.90
13336;DHT22;6737;51.480;11.962;2023-07-16T01:25:31;20.00;99.90
13336;DHT22;6737;51.480;11.962;2023-07-16T01:31:21;20.00;99.90
13336;DHT22;6737;51.480;11.962;2023-07-16T01:33:49;20.00;99.90
13336;DHT22;6737;51.480;11.962;2023-07-16T01:36:17;20.00;99.90
13336;DHT22;6737;51.480;11.962;2023-07-16T01:38:43;20.00;99.90
13336;DHT22;6737;51.480;11.962;2023-07-16T01:41:10;20.00;99.90
13336;DHT22;6737;51.480;11.962;2023-07-16T01:43:36;20.00;99.90
13336;DHT22;6737;51.480;11.962;2023-07-16T01:46:02;20.00;99.90
13336;DHT22;6737;51.480;11.962;2023-07-16T01:48:33;19.90;99.90
13336;DHT22;6737;51.480;11.962;2023-07-16T01:51:00;19.90;99.90
13336;DHT22;6737;51.480;11.962;2023-07-16T01:53:25;19.90;99.90
13336;DHT22;6737;51.480;11.962;2023-07-16T01:55:51;19.80;99.90
13336;DHT22;6737;51.480;11.962;2023-07-16T01:58:17;19.80;99.90
13336;DHT22;6737;51.480;11.962;2023-07-16T02:00:43;19.80;99.90
13336;DHT22;6737;51.480;11.962;2023-07-16T02:03:09;19.70;99.90
13336;DHT22;6737;51.480;11.962;2023-07-16T02:05:35;19.70;99.90
13336;DHT22;6737;51.480;11.962;2023-07-16T02:08:01;19.80;99.90
13336;DHT22;6737;51.480;11.962;2023-07-16T02:10:26;19.80;99.90
13336;DHT22;6737;51.480;11.962;2023-07-16T02:12:52;19.80;99.90
13336;DHT22;6737;51.480;11.962;2023-07-16T02:15:18;19.90;99.90
13336;DHT22;6737;51.480;11.962;2023-07-16T02:17:45;19.90;99.90
13336;DHT22;6737;51.480;11.962;2023-07-16T02:20:11;19.80;99.90
13336;DHT22;6737;51.480;11.962;2023-07-16T02:22:37;19.90;99.90
13336;DHT22;6737;51.480;11.962;2023-07-16T02:25:03;19.90;99.90
13336;DHT22;6737;51.480;11.962;2023-07-16T02:27:29;19.90;99.90
13336;DHT22;6737;51.480;11.962;2023-07-16T02:29:54;19.90;99.90
13336;DHT22;6737;51.480;11.962;2023-07-16T02:32:20;19.90;99.90
13336;DHT22;6737;51.480;11.962;2023-07-16T02:34:46;19.90;99.90
13336;DHT22;6737;51.480;11.962;2023-07-16T02:37:12;19.90;99.90
13336;DHT22;6737;51.480;11.962;2023-07-16T02:39:45;19.90;99.90
13336;DHT22;6737;51.480;11.962;2023-07-16T02:42:13;19.90;99.90
13336;DHT22;6737;51.480;11.962;2023-07-16T02:44:38;19.90;99.90
13336;DHT22;6737;51.480;11.962;2023-07-16T02:47:09;19.90;99.90
13336;DHT22;6737;51.480;11.962;2023-07-16T02:49:34;19.90;99.90
13336;DHT22;6737;51.480;11.962;2023-07-16T02:52:00;19.90;99.90
13336;DHT22;6737;51.480;11.962;2023-07-16T02:54:26;19.80;99.90
13336;DHT22;6737;51.480;11.962;2023-07-16T02:56:52;19.80;99.90
13336;DHT22;6737;51.480;11.962;2023-07-16T02:59:18;19.80;99.90
13336;DHT22;6737;51.480;11.962;2023-07-16T03:01:44;19.90;99.90
13336;DHT22;6737;51.480;11.962;2023-07-16T03:04:10;19.80;99.90
13336;DHT22;6737;51.480;11.962;2023-07-16T03:06:36;19.80;99.90
13336;DHT22;6737;51.480;11.962;2023-07-16T03:09:01;19.80;99.90
13336;DHT22;6737;51.480;11.962;2023-07-16T03:11:27;19.90;99.90
13336;DHT22;6737;51.480;11.962;2023-07-16T03:13:53;19.90;99.90
13336;DHT22;6737;51.480;11.962;2023-07-16T03:16:18;19.80;99.90
13336;DHT22;6737;51.480;11.962;2023-07-16T03:18:44;19.80;99.90
13336;DHT22;6737;51.480;11.962;2023-07-16T03:21:11;19.80;99.90
13336;DHT22;6737;51.480;11.962;2023-07-16T03:23:37;19.90;99.90
13336;DHT22;6737;51.480;11.962;2023-07-16T03:26:03;19.80;99.90
13336;DHT22;6737;51.480;11.962;2023-07-16T03:28:28;19.80;99.90
13336;DHT22;6737;51.480;11.962;2023-07-16T03:30:54;19.70;99.90
13336;DHT22;6737;51.480;11.962;2023-07-16T03:33:20;19.80;99.90
13336;DHT22;6737;51.480;11.962;2023-07-16T03:35:47;19.80;99.90
13336;DHT22;6737;51.480;11.962;2023-07-16T03:38:13;19.90;99.90
13336;DHT22;6737;51.480;11.962;2023-07-16T03:40:41;19.80;99.90
13336;DHT22;6737;51.480;11.962;2023-07-16T03:43:07;19.80;99.90
13336;DHT22;6737;51.480;11.962;2023-07-16T03:45:33;19.80;99.90
13336;DHT22;6737;51.480;11.962;2023-07-16T03:47:59;19.90;99.90
13336;DHT22;6737;51.480;11.962;2023-07-16T03:50:25;19.90;99.90
13336;DHT22;6737;51.480;11.962;2023-07-16T03:52:50;19.90;99.90
13336;DHT22;6737;51.480;11.962;2023-07-16T03:55:16;19.90;99.90
13336;DHT22;6737;51.480;11.962;2023-07-16T03:57:42;19.90;99.90
13336;DHT22;6737;51.480;11.962;2023-07-16T04:00:08;19.90;99.90
13336;DHT22;6737;51.480;11.962;2023-07-16T04:02:35;19.90;99.90
13336;DHT22;6737;51.480;11.962;2023-07-16T04:05:02;19.90;99.90
13336;DHT22;6737;51.480;11.962;2023-07-16T04:07:28;19.90;99.90
13336;DHT22;6737;51.480;11.962;2023-07-16T04:09:54;19.90;99.90
13336;DHT22;6737;51.480;11.962;2023-07-16T04:12:20;19.90;99.90
13336;DHT22;6737;51.480;11.962;2023-07-16T04:14:46;19.90;99.90
13336;DHT22;6737;51.480;11.962;2023-07-16T04:17:13;19.90;99.90
13336;DHT22;6737;51.480;11.962;2023-07-16T04:19:38;19.90;99.90
13336;DHT22;6737;51.480;11.962;2023-07-16T04:22:05;19.90;99.90
13336;DHT22;6737;51.480;11.962;2023-07-16T04:24:31;19.90;99.90
13336;DHT22;6737;51.480;11.962;2023-07-16T04:26:58;19.90;99.90
13336;DHT22;6737;51.480;11.962;2023-07-16T04:29:23;20.00;99.90
13336;DHT22;6737;51.480;11.962;2023-07-16T04:31:50;19.90;99.90
13336;DHT22;6737;51.480;11.962;2023-07-16T04:34:15;19.90;99.90
13336;DHT22;6737;51.480;11.962;2023-07-16T04:36:44;19.90;99.90
13336;DHT22;6737;51.480;11.962;2023-07-16T04:39:10;19.90;99.90
13336;DHT22;6737;51.480;11.962;2023-07-16T04:41:36;19.90;99.90
13336;DHT22;6737;51.480;11.962;2023-07-16T04:44:01;19.90;99.90
13336;DHT22;6737;51.480;11.962;2023-07-16T04:46:27;19.90;99.90
13336;DHT22;6737;51.480;11.962;2023-07-16T04:48:53;20.00;99.90
13336;DHT22;6737;51.480;11.962;2023-07-16T04:51:19;20.00;99.90
13336;DHT22;6737;51.480;11.962;2023-07-16T04:53:45;19.90;99.90
13336;DHT22;6737;51.480;11.962;2023-07-16T04:56:14;19.90;99.90
13336;DHT22;6737;51.480;11.962;2023-07-16T04:58:40;19.90;99.90
13336;DHT22;6737;51.480;11.962;2023-07-16T05:01:09;19.90;99.90
13336;DHT22;6737;51.480;11.962;2023-07-16T05:03:36;20.00;99.90
13336;DHT22;6737;51.480;11.962;2023-07-16T05:06:02;20.00;99.90
13336;DHT22;6737;51.480;11.962;2023-07-16T05:08:28;20.00;99.90
13336;DHT22;6737;51.480;11.962;2023-07-16T05:10:54;19.90;99.90
13336;DHT22;6737;51.480;11.962;2023-07-16T05:13:20;20.00;99.90
13336;DHT22;6737;51.480;11.962;2023-07-16T05:15:46;20.00;99.90
13336;DHT22;6737;51.480;11.962;2023-07-16T05:18:12;19.90;99.90
13336;DHT22;6737;51.480;11.962;2023-07-16T05:20:37;19.90;99.90
13336;DHT22;6737;51.480;11.962;2023-07-16T05:23:03;19.90;99.90
13336;DHT22;6737;51.480;11.962;2023-07-16T05:25:29;19.90;99.90
13336;DHT22;6737;51.480;11.962;2023-07-16T05:27:55;19.80;99.90
13336;DHT22;6737;51.480;11.962;2023-07-16T05:30:21;19.90;99.90
13336;DHT22;6737;51.480;11.962;2023-07-16T05:32:47;19.80;99.90
13336;DHT22;6737;51.480;11.962;2023-07-16T05:35:13;19.90;99.90
13336;DHT22;6737;51.480;11.962;2023-07-16T05:37:39;19.90;99.90
13336;DHT22;6737;51.480;11.962;2023-07-16T05:40:05;19.80;99.90
13336;DHT22;6737;51.480;11.962;2023-07-16T05:42:34;19.80;99.90
13336;DHT22;6737;51.480;11.962;2023-07-16T05:45:00;19.90;99.90
13336;DHT22;6737;51.480;11.962;2023-07-16T05:47:26;19.90;99.90
13336;DHT22;6737;51.480;11.962;2023-07-16T05:49:51;19.90;99.90
13336;DHT22;6737;51.480;11.962;2023-07-16T05:52:17;19.90;99.90
13336;DHT22;6737;51.480;11.962;2023-07-16T05:54:44;20.00;99.90
13336;DHT22;6737;51.480;11.962;2023-07-16T05:57:11;20.00;99.90
13336;DHT22;6737;51.480;11.962;2023-07-16T05:59:36;20.10;99.90
13336;DHT22;6737;51.480;11.962;2023-07-16T06:02:03;20.10;99.90
13336;DHT22;6737;51.480;11.962;2023-07-16T06:04:29;20.10;99.90
13336;DHT22;6737;51.480;11.962;2023-07-16T06:06:56;20.10;99.90
13336;DHT22;6737;51.480;11.962;2023-07-16T06:09:22;20.10;99.90
13336;DHT22;6737;51.480;11.962;2023-07-16T06:11:48;20.10;99.90
13336;DHT22;6737;51.480;11.962;2023-07-16T06:14:15;20.10;99.90
13336;DHT22;6737;51.480;11.962;2023-07-16T06:16:41;20.10;99.90
13336;DHT22;6737;51.480;11.962;2023-07-16T06:19:06;20.10;99.90
13336;DHT22;6737;51.480;11.962;2023-07-16T06:21:32;20.20;99.90
13336;DHT22;6737;51.480;11.962;2023-07-16T06:23:58;20.20;99.90
13336;DHT22;6737;51.480;11.962;2023-07-16T06:26:24;20.20;99.90
13336;DHT22;6737;51.480;11.962;2023-07-16T06:28:49;20.30;99.90
13336;DHT22;6737;51.480;11.962;2023-07-16T06:31:18;20.40;99.90
13336;DHT22;6737;51.480;11.962;2023-07-16T06:33:44;20.40;99.90
13336;DHT22;6737;51.480;11.962;2023-07-16T06:36:12;20.40;99.90
13336;DHT22;6737;51.480;11.962;2023-07-16T06:38:38;20.50;99.90
13336;DHT22;6737;51.480;11.962;2023-07-16T06:41:04;20.60;99.90
13336;DHT22;6737;51.480;11.962;2023-07-16T06:43:30;20.60;99.90
13336;DHT22;6737;51.480;11.962;2023-07-16T06:45:56;20.60;99.90
13336;DHT22;6737;51.480;11.962;2023-07-16T06:48:22;20.70;99.90
13336;DHT22;6737;51.480;11.962;2023-07-16T06:50:47;20.80;99.90
13336;DHT22;6737;51.480;11.962;2023-07-16T06:53:15;20.80;99.90
13336;DHT22;6737;51.480;11.962;2023-07-16T06:55:40;20.90;99.90
13336;DHT22;6737;51.480;11.962;2023-07-16T06:58:10;20.90;99.90
13336;DHT22;6737;51.480;11.962;2023-07-16T07:00:36;21.00;99.90
13336;DHT22;6737;51.480;11.962;2023-07-16T07:03:02;21.10;99.90
13336;DHT22;6737;51.480;11.962;2023-07-16T07:05:28;21.20;99.90
13336;DHT22;6737;51.480;11.962;2023-07-16T07:07:54;21.20;99.90
13336;DHT22;6737;51.480;11.962;2023-07-16T07:10:20;21.10;99.90
13336;DHT22;6737;51.480;11.962;2023-07-16T07:12:46;21.10;99.90
13336;DHT22;6737;51.480;11.962;2023-07-16T07:15:11;21.20;99.90
13336;DHT22;6737;51.480;11.962;2023-07-16T07:17:37;21.20;99.90
13336;DHT22;6737;51.480;11.962;2023-07-16T07:20:03;21.30;99.90
13336;DHT22;6737;51.480;11.962;2023-07-16T07:22:29;21.40;99.90
13336;DHT22;6737;51.480;11.962;2023-07-16T07:24:55;21.40;99.90
13336;DHT22;6737;51.480;11.962;2023-07-16T07:27:21;21.50;99.90
13336;DHT22;6737;51.480;11.962;2023-07-16T07:29:46;21.50;99.90
13336;DHT22;6737;51.480;11.962;2023-07-16T07:32:13;21.60;99.90
13336;DHT22;6737;51.480;11.962;2023-07-16T07:34:40;21.70;99.90
13336;DHT22;6737;51.480;11.962;2023-07-16T07:37:05;21.80;99.90
13336;DHT22;6737;51.480;11.962;2023-07-16T07:39:31;22.00;99.90
13336;DHT22;6737;51.480;11.962;2023-07-16T07:41:57;22.00;99.90
13336;DHT22;6737;51.480;11.962;2023-07-16T07:44:23;22.00;99.90
13336;DHT22;6737;51.480;11.962;2023-07-16T07:46:48;21.90;99.90
13336;DHT22;6737;51.480;11.962;2023-07-16T07:49:14;21.90;99.90
13336;DHT22;6737;51.480;11.962;2023-07-16T07:51:40;21.90;99.90
13336;DHT22;6737;51.480;11.962;2023-07-16T07:54:06;22.10;99.90
13336;DHT22;6737;51.480;11.962;2023-07-16T07:56:32;22.10;99.90
13336;DHT22;6737;51.480;11.962;2023-07-16T07:58:57;22.30;99.90
13336;DHT22;6737;51.480;11.962;2023-07-16T08:01:23;22.30;99.90
13336;DHT22;6737;51.480;11.962;2023-07-16T08:03:49;22.30;99.90
13336;DHT22;6737;51.480;11.962;2023-07-16T08:06:15;22.20;99.90
13336;DHT22;6737;51.480;11.962;2023-07-16T08:08:41;22.20;99.90
13336;DHT22;6737;51.480;11.962;2023-07-16T08:11:06;22.30;99.90
13336;DHT22;6737;51.480;11.962;2023-07-16T08:13:32;22.50;99.90
13336;DHT22;6737;51.480;11.962;2023-07-16T08:15:58;22.60;99.90
13336;DHT22;6737;51.480;11.962;2023-07-16T08:18:23;22.70;99.90
13336;DHT22;6737;51.480;11.962;2023-07-16T08:20:49;22.80;99.90
13336;DHT22;6737;51.480;11.962;2023-07-16T08:23:15;22.80;99.90
13336;DHT22;6737;51.480;11.962;2023-07-16T08:25:42;22.80;99.90
13336;DHT22;6737;51.480;11.962;2023-07-16T08:28:08;22.80;99.90
13336;DHT22;6737;51.480;11.962;2023-07-16T08:30:34;22.90;99.90
13336;DHT22;6737;51.480;11.962;2023-07-16T08:32:59;23.00;99.90
13336;DHT22;6737;51.480;11.962;2023-07-16T08:35:25;23.00;99.90
13336;DHT22;6737;51.480;11.962;2023-07-16T08:37:51;23.00;99.90
13336;DHT22;6737;51.480;11.962;2023-07-16T08:40:17;23.00;99.90
13336;DHT22;6737;51.480;11.962;2023-07-16T08:42:46;23.00;99.90
13336;DHT22;6737;51.480;11.962;2023-07-16T08:45:15;23.10;99.90
13336;DHT22;6737;51.480;11.962;2023-07-16T08:47:42;23.10;99.90
13336;DHT22;6737;51.480;11.962;2023-07-16T08:50:08;23.20;99.90
13336;DHT22;6737;51.480;11.962;2023-07-16T08:52:34;23.20;99.90
13336;DHT22;6737;51.480;11.962;2023-07-16T08:55:00;23.30;99.90
13336;DHT22;6737;51.480;11.962;2023-07-16T08:57:26;23.30;99.90
13336;DHT22;6737;51.480;11.962;2023-07-16T08:59:53;23.30;99.90
13336;DHT22;6737;51.480;11.962;2023-07-16T09:02:21;23.40;99.90
13336;DHT22;6737;51.480;11.962;2023-07-16T09:04:47;23.30;99.90
13336;DHT22;6737;51.480;11.962;2023-07-16T09:07:15;23.30;99.90
13336;DHT22;6737;51.480;11.962;2023-07-16T09:09:41;23.10;99.90
13336;DHT22;6737;51.480;11.962;2023-07-16T09:12:12;23.10;99.90
13336;DHT22;6737;51.480;11.962;2023-07-16T09:14:40;23.20;99.90
13336;DHT22;6737;51.480;11.962;2023-07-16T09:17:06;23.40;99.90
13336;DHT22;6737;51.480;11.962;2023-07-16T09:19:34;23.50;99.90
13336;DHT22;6737;51.480;11.962;2023-07-16T09:22:01;23.70;99.90
13336;DHT22;6737;51.480;11.962;2023-07-16T09:24:28;23.80;99.90
13336;DHT22;6737;51.480;11.962;2023-07-16T09:26:55;23.80;99.90
13336;DHT22;6737;51.480;11.962;2023-07-16T09:29:26;24.00;99.90
13336;DHT22;6737;51.480;11.962;2023-07-16T09:31:57;24.00;99.90
13336;DHT22;6737;51.480;11.962;2023-07-16T09:34:23;24.10;99.90
13336;DHT22;6737;51.480;11.962;2023-07-16T09:36:52;24.20;99.90
13336;DHT22;6737;51.480;11.962;2023-07-16T09:39:18;24.20;99.90
13336;DHT22;6737;51.480;11.962;2023-07-16T09:41:48;24.40;99.90
13336;DHT22;6737;51.480;11.962;2023-07-16T09:44:18;24.50;99.90
13336;DHT22;6737;51.480;11.962;2023-07-16T09:46:45;24.60;99.90
13336;DHT22;6737;51.480;11.962;2023-07-16T09:49:11;24.70;99.90
13336;DHT22;6737;51.480;11.962;2023-07-16T09:51:38;24.70;99.90
13336;DHT22;6737;51.480;11.962;2023-07-16T09:54:05;24.70;99.70
13336;DHT22;6737;51.480;11.962;2023-07-16T09:56:37;24.70;99.50
13336;DHT22;6737;51.480;11.962;2023-07-16T09:59:22;24.80;97.90
13336;DHT22;6737;51.480;11.962;2023-07-16T10:01:50;24.80;98.60
13336;DHT22;6737;51.480;11.962;2023-07-16T10:04:17;25.00;98.10
13336;DHT22;6737;51.480;11.962;2023-07-16T10:06:54;25.10;97.50
13336;DHT22;6737;51.480;11.962;2023-07-16T10:09:39;25.00;97.50
13336;DHT22;6737;51.480;11.962;2023-07-16T10:12:15;24.60;96.40
13336;DHT22;6737;51.480;11.962;2023-07-16T10:14:42;24.60;95.00
13336;DHT22;6737;51.480;11.962;2023-07-16T10:17:29;24.70;96.80
13336;DHT22;6737;51.480;11.962;2023-07-16T10:20:10;24.70;96.30
13336;DHT22;6737;51.480;11.962;2023-07-16T10:22:39;24.60;96.30
13336;DHT22;6737;51.480;11.962;2023-07-16T10:27:45;24.80;96.90
13336;DHT22;6737;51.480;11.962;2023-07-16T10:30:11;24.90;97.20
13336;DHT22;6737;51.480;11.962;2023-07-16T10:32:38;25.10;97.50
13336;DHT22;6737;51.480;11.962;2023-07-16T10:35:05;25.30;96.90
13336;DHT22;6737;51.480;11.962;2023-07-16T10:37:32;25.50;96.90
13336;DHT22;6737;51.480;11.962;2023-07-16T10:39:59;25.50;95.50
13336;DHT22;6737;51.480;11.962;2023-07-16T10:42:27;25.50;96.40
13336;DHT22;6737;51.480;11.962;2023-07-16T10:44:58;25.60;94.50
13336;DHT22;6737;51.480;11.962;2023-07-16T10:47:32;25.70;94.60
13336;DHT22;6737;51.480;11.962;2023-07-16T10:49:58;25.70;94.70
13336;DHT22;6737;51.480;11.962;2023-07-16T10:52:26;25.80;95.30
13336;DHT22;6737;51.480;11.962;2023-07-16T10:54:52;25.80;94.00
13336;DHT22;6737;51.480;11.962;2023-07-16T10:57:27;25.80;93.30
13336;DHT22;6737;51.480;11.962;2023-07-16T10:59:55;25.60;94.20
13336;DHT22;6737;51.480;11.962;2023-07-16T11:02:23;25.40;94.40
13336;DHT22;6737;51.480;11.962;2023-07-16T11:04:50;25.40;94.30
13336;DHT22;6737;51.480;11.962;2023-07-16T11:07:16;25.50;94.20
13336;DHT22;6737;51.480;11.962;2023-07-16T11:09:50;25.50;93.60
13336;DHT22;6737;51.480;11.962;2023-07-16T11:12:19;25.50;94.80
13336;DHT22;6737;51.480;11.962;2023-07-16T11:14:47;25.70;93.40
13336;DHT22;6737;51.480;11.962;2023-07-16T11:17:14;25.80;93.60
13336;DHT22;6737;51.480;11.962;2023-07-16T11:19:41;25.90;94.20
13336;DHT22;6737;51.480;11.962;2023-07-16T11:22:09;25.90;92.40
13336;DHT22;6737;51.480;11.962;2023-07-16T11:24:49;26.00;93.60
13336;DHT22;6737;51.480;11.962;2023-07-16T11:29:51;26.30;93.90
13336;DHT22;6737;51.480;11.962;2023-07-16T11:35:01;26.30;92.90
13336;DHT22;6737;51.480;11.962;2023-07-16T11:37:29;26.30;93.10
13336;DHT22;6737;51.480;11.962;2023-07-16T11:40:01;26.30;93.70
13336;DHT22;6737;51.480;11.962;2023-07-16T11:42:32;26.40;93.00
13336;DHT22;6737;51.480;11.962;2023-07-16T11:44:59;26.40;93.10
13336;DHT22;6737;51.480;11.962;2023-07-16T11:47:26;26.20;91.10
13336;DHT22;6737;51.480;11.962;2023-07-16T11:49:52;26.20;91.90
13336;DHT22;6737;51.480;11.962;2023-07-16T11:52:22;26.20;92.20
13336;DHT22;6737;51.480;11.962;2023-07-16T11:54:49;26.20;91.90
13336;DHT22;6737;51.480;11.962;2023-07-16T11:57:15;26.30;91.80
13336;DHT22;6737;51.480;11.962;2023-07-16T11:59:41;26.30;91.70
13336;DHT22;6737;51.480;11.962;2023-07-16T12:02:07;26.30;91.40
13336;DHT22;6737;51.480;11.962;2023-07-16T12:04:33;26.40;91.90
13336;DHT22;6737;51.480;11.962;2023-07-16T12:06:59;26.40;91.10
13336;DHT22;6737;51.480;11.962;2023-07-16T12:09:25;26.40;90.10
13336;DHT22;6737;51.480;11.962;2023-07-16T12:11:51;26.30;90.30
13336;DHT22;6737;51.480;11.962;2023-07-16T12:14:17;26.10;91.50
13336;DHT22;6737;51.480;11.962;2023-07-16T12:16:42;26.10;88.70
13336;DHT22;6737;51.480;11.962;2023-07-16T12:19:09;26.20;90.50
13336;DHT22;6737;51.480;11.962;2023-07-16T12:21:35;26.30;90.20
13336;DHT22;6737;51.480;11.962;2023-07-16T12:24:01;26.30;90.40
13336;DHT22;6737;51.480;11.962;2023-07-16T12:26:27;26.40;88.70
13336;DHT22;6737;51.480;11.962;2023-07-16T12:28:53;26.40;90.40
13336;DHT22;6737;51.480;11.962;2023-07-16T12:31:19;26.50;90.80
13336;DHT22;6737;51.480;11.962;2023-07-16T12:33:46;26.50;90.20
13336;DHT22;6737;51.480;11.962;2023-07-16T12:36:13;26.40;87.00
13336;DHT22;6737;51.480;11.962;2023-07-16T12:38:39;26.30;88.50
13336;DHT22;6737;51.480;11.962;2023-07-16T12:41:05;26.20;90.00
13336;DHT22;6737;51.480;11.962;2023-07-16T12:43:32;26.30;90.80
13336;DHT22;6737;51.480;11.962;2023-07-16T12:46:04;26.40;88.70
13336;DHT22;6737;51.480;11.962;2023-07-16T12:48:32;26.50;89.10
13336;DHT22;6737;51.480;11.962;2023-07-16T12:50:58;26.60;89.30
13336;DHT22;6737;51.480;11.962;2023-07-16T12:53:24;26.60;85.00
13336;DHT22;6737;51.480;11.962;2023-07-16T12:55:51;26.50;83.70
13336;DHT22;6737;51.480;11.962;2023-07-16T12:58:17;26.50;84.70
13336;DHT22;6737;51.480;11.962;2023-07-16T13:00:43;26.40;86.60
13336;DHT22;6737;51.480;11.962;2023-07-16T13:03:09;26.40;84.40
13336;DHT22;6737;51.480;11.962;2023-07-16T13:05:40;26.40;84.20
13336;DHT22;6737;51.480;11.962;2023-07-16T13:08:07;26.40;84.80
13336;DHT22;6737;51.480;11.962;2023-07-16T13:10:32;26.40;84.20
13336;DHT22;6737;51.480;11.962;2023-07-16T13:12:58;26.40;84.40
13336;DHT22;6737;51.480;11.962;2023-07-16T13:15:24;26.40;82.90
13336;DHT22;6737;51.480;11.962;2023-07-16T13:17:50;26.40;82.50
13336;DHT22;6737;51.480;11.962;2023-07-16T13:20:17;26.40;84.10
13336;DHT22;6737;51.480;11.962;2023-07-16T13:22:44;26.40;83.50
13336;DHT22;6737;51.480;11.962;2023-07-16T13:25:09;26.40;82.80
13336;DHT22;6737;51.480;11.962;2023-07-16T13:27:35;26.40;79.70
13336;DHT22;6737;51.480;11.962;2023-07-16T13:30:01;26.50;82.20
13336;DHT22;6737;51.480;11.962;2023-07-16T13:32:27;26.40;80.70
13336;DHT22;6737;51.480;11.962;2023-07-16T13:34:54;26.40;79.10
13336;DHT22;6737;51.480;11.962;2023-07-16T13:37:19;26.40;79.00
13336;DHT22;6737;51.480;11.962;2023-07-16T13:39:45;26.40;80.60
13336;DHT22;6737;51.480;11.962;2023-07-16T13:42:11;26.30;78.10
13336;DHT22;6737;51.480;11.962;2023-07-16T13:44:37;26.40;79.90
13336;DHT22;6737;51.480;11.962;2023-07-16T13:47:03;26.40;80.50
13336;DHT22;6737;51.480;11.962;2023-07-16T13:49:29;26.40;82.10
13336;DHT22;6737;51.480;11.962;2023-07-16T13:51:55;26.40;79.50
13336;DHT22;6737;51.480;11.962;2023-07-16T13:54:21;26.40;78.70
13336;DHT22;6737;51.480;11.962;2023-07-16T13:56:48;26.40;79.30
13336;DHT22;6737;51.480;11.962;2023-07-16T13:59:14;26.30;79.00
13336;DHT22;6737;51.480;11.962;2023-07-16T14:01:40;26.40;79.90
13336;DHT22;6737;51.480;11.962;2023-07-16T14:04:06;26.40;78.90
13336;DHT22;6737;51.480;11.962;2023-07-16T14:06:33;26.40;77.30
13336;DHT22;6737;51.480;11.962;2023-07-16T14:08:59;26.40;77.90
13336;DHT22;6737;51.480;11.962;2023-07-16T14:11:25;26.40;80.60
13336;DHT22;6737;51.480;11.962;2023-07-16T14:13:52;26.40;81.20
13336;DHT22;6737;51.480;11.962;2023-07-16T14:16:19;26.30;79.00
13336;DHT22;6737;51.480;11.962;2023-07-16T14:18:51;26.40;80.10
13336;DHT22;6737;51.480;11.962;2023-07-16T14:21:18;26.40;79.40
13336;DHT22;6737;51.480;11.962;2023-07-16T14:23:43;26.40;79.00
13336;DHT22;6737;51.480;11.962;2023-07-16T14:26:12;26.40;78.50
13336;DHT22;6737;51.480;11.962;2023-07-16T14:28:38;26.30;76.40
13336;DHT22;6737;51.480;11.962;2023-07-16T14:31:04;26.30;75.70
13336;DHT22;6737;51.480;11.962;2023-07-16T14:33:30;26.30;76.80
13336;DHT22;6737;51.480;11.962;2023-07-16T14:35:57;26.40;75.50
13336;DHT22;6737;51.480;11.962;2023-07-16T14:38:23;26.40;77.70
13336;DHT22;6737;51.480;11.962;2023-07-16T14:40:49;26.30;76.10
13336;DHT22;6737;51.480;11.962;2023-07-16T14:43:18;26.30;78.10
13336;DHT22;6737;51.480;11.962;2023-07-16T14:45:44;26.30;77.80
13336;DHT22;6737;51.480;11.962;2023-07-16T14:48:10;26.30;78.50
13336;DHT22;6737;51.480;11.962;2023-07-16T14:50:35;26.30;77.70
13336;DHT22;6737;51.480;11.962;2023-07-16T14:53:01;26.30;78.70
13336;DHT22;6737;51.480;11.962;2023-07-16T14:55:27;26.30;76.50
13336;DHT22;6737;51.480;11.962;2023-07-16T14:57:54;26.30;78.80
13336;DHT22;6737;51.480;11.962;2023-07-16T15:00:20;26.30;79.10
13336;DHT22;6737;51.480;11.962;2023-07-16T15:02:45;26.30;76.20
13336;DHT22;6737;51.480;11.962;2023-07-16T15:05:11;26.30;79.90
13336;DHT22;6737;51.480;11.962;2023-07-16T15:07:37;26.30;80.40
13336;DHT22;6737;51.480;11.962;2023-07-16T15:10:03;26.30;76.50
13336;DHT22;6737;51.480;11.962;2023-07-16T15:12:30;26.30;77.70
13336;DHT22;6737;51.480;11.962;2023-07-16T15:14:56;26.10;79.00
13336;DHT22;6737;51.480;11.962;2023-07-16T15:17:22;26.20;80.40
13336;DHT22;6737;51.480;11.962;2023-07-16T15:19:49;26.10;79.80
13336;DHT22;6737;51.480;11.962;2023-07-16T15:22:15;26.20;80.30
13336;DHT22;6737;51.480;11.962;2023-07-16T15:24:44;26.20;80.00
13336;DHT22;6737;51.480;11.962;2023-07-16T15:27:10;26.10;79.00
13336;DHT22;6737;51.480;11.962;2023-07-16T15:29:35;26.10;78.30
13336;DHT22;6737;51.480;11.962;2023-07-16T15:32:01;26.10;79.40
13336;DHT22;6737;51.480;11.962;2023-07-16T15:34:27;26.20;78.60
13336;DHT22;6737;51.480;11.962;2023-07-16T15:36:53;26.20;79.60
13336;DHT22;6737;51.480;11.962;2023-07-16T15:39:19;26.00;78.10